sensor_id;sensor_type;location;lat;lon;timestamp;temperature;humidity
55711;DHT22;41612;51.994;5.880;2023-04-28T00:01:20;11.80;65.00
55711;DHT22;41612;51.994;5.880;2023-04-28T00:04:01;11.80;64.70
55711;DHT22;41612;51.994;5.880;2023-04-28T00:06:32;11.80;64.80
55711;DHT22;41612;51.994;5.880;2023-04-28T00:09:21;11.70;64.80
55711;DHT22;41612;51.994;5.880;2023-04-28T00:11:47;11.70;64.80
55711;DHT22;41612;51.994;5.880;2023-04-28T00:14:23;11.60;64.30
55711;DHT22;41612;51.994;5.880;2023-04-28T00:16:53;11.60;64.40
55711;DHT22;41612;51.994;5.880;2023-04-28T00:19:21;11.60;65.00
55711;DHT22;41612;51.994;5.880;2023-04-28T00:21:51;11.50;63.70
55711;DHT22;41612;51.994;5.880;2023-04-28T00:24:23;11.50;65.60
55711;DHT22;41612;51.994;5.880;2023-04-28T00:26:53;11.50;65.40
55711;DHT22;41612;51.994;5.880;2023-04-28T00:30:15;11.50;63.70
55711;DHT22;41612;51.994;5.880;2023-04-28T00:32:57;11.40;65.50
55711;DHT22;41612;51.994;5.880;2023-04-28T00:35:28;11.30;64.80
55711;DHT22;41612;51.994;5.880;2023-04-28T00:37:54;11.40;65.80
55711;DHT22;41612;51.994;5.880;2023-04-28T00:40:21;11.40;65.10
55711;DHT22;41612;51.994;5.880;2023-04-28T00:42:59;11.40;65.50
55711;DHT22;41612;51.994;5.880;2023-04-28T00:46:08;11.40;64.80
55711;DHT22;41612;51.994;5.880;2023-04-28T00:48:45;11.40;65.20
55711;DHT22;41612;51.994;5.880;2023-04-28T00:51:18;11.30;64.50
55711;DHT22;41612;51.994;5.880;2023-04-28T00:53:58;11.40;65.50
55711;DHT22;41612;51.994;5.880;2023-04-28T00:56:30;11.40;65.70
55711;DHT22;41612;51.994;5.880;2023-04-28T00:59:06;11.40;63.90
55711;DHT22;41612;51.994;5.880;2023-04-28T01:01:50;11.40;64.60
55711;DHT22;41612;51.994;5.880;2023-04-28T01:04:28;11.30;63.20
55711;DHT22;41612;51.994;5.880;2023-04-28T01:07:03;11.30;64.40
55711;DHT22;41612;51.994;5.880;2023-04-28T01:09:39;11.30;65.20
55711;DHT22;41612;51.994;5.880;2023-04-28T01:12:15;11.40;65.20
55711;DHT22;41612;51.994;5.880;2023-04-28T01:14:57;11.30;63.80
55711;DHT22;41612;51.994;5.880;2023-04-28T01:17:55;11.30;64.60
55711;DHT22;41612;51.994;5.880;2023-04-28T01:20:28;11.30;64.10
55711;DHT22;41612;51.994;5.880;2023-04-28T01:22:55;11.30;65.20
55711;DHT22;41612;51.994;5.880;2023-04-28T01:25:21;11.30;60.20
55711;DHT22;41612;51.994;5.880;2023-04-28T01:28:02;11.20;64.90
55711;DHT22;41612;51.994;5.880;2023-04-28T01:30:31;11.20;64.70
55711;DHT22;41612;51.994;5.880;2023-04-28T01:33:13;11.20;62.60
55711;DHT22;41612;51.994;5.880;2023-04-28T01:35:42;11.10;65.30
55711;DHT22;41612;51.994;5.880;2023-04-28T01:38:09;11.10;65.60
55711;DHT22;41612;51.994;5.880;2023-04-28T01:40:35;11.10;65.90
55711;DHT22;41612;51.994;5.880;2023-04-28T01:43:02;11.10;66.30
55711;DHT22;41612;51.994;5.880;2023-04-28T01:45:31;11.10;66.20
55711;DHT22;41612;51.994;5.880;2023-04-28T01:48:05;11.00;66.40
55711;DHT22;41612;51.994;5.880;2023-04-28T01:50:42;11.00;66.10
55711;DHT22;41612;51.994;5.880;2023-04-28T01:53:08;11.00;66.00
55711;DHT22;41612;51.994;5.880;2023-04-28T01:55:36;11.00;66.30
55711;DHT22;41612;51.994;5.880;2023-04-28T01:58:14;11.00;66.90
55711;DHT22;41612;51.994;5.880;2023-04-28T02:00:55;11.00;66.70
55711;DHT22;41612;51.994;5.880;2023-04-28T02:03:24;11.00;66.50
55711;DHT22;41612;51.994;5.880;2023-04-28T02:05:53;10.90;65.90
55711;DHT22;41612;51.994;5.880;2023-04-28T02:08:21;10.90;66.40
55711;DHT22;41612;51.994;5.880;2023-04-28T02:10:47;11.00;66.40
55711;DHT22;41612;51.994;5.880;2023-04-28T02:13:14;10.90;63.30
55711;DHT22;41612;51.994;5.880;2023-04-28T02:15:43;10.90;65.30
55711;DHT22;41612;51.994;5.880;2023-04-28T02:18:09;10.80;61.60
55711;DHT22;41612;51.994;5.880;2023-04-28T02:20:40;10.80;64.60
55711;DHT22;41612;51.994;5.880;2023-04-28T02:23:12;10.70;65.80
55711;DHT22;41612;51.994;5.880;2023-04-28T02:25:37;10.70;66.90
55711;DHT22;41612;51.994;5.880;2023-04-28T02:28:14;10.70;65.80
55711;DHT22;41612;51.994;5.880;2023-04-28T02:31:00;10.70;65.40
55711;DHT22;41612;51.994;5.880;2023-04-28T02:33:31;10.80;66.30
55711;DHT22;41612;51.994;5.880;2023-04-28T02:36:00;10.70;64.80
55711;DHT22;41612;51.994;5.880;2023-04-28T02:38:37;10.80;66.10
55711;DHT22;41612;51.994;5.880;2023-04-28T02:41:11;10.80;66.90
55711;DHT22;41612;51.994;5.880;2023-04-28T02:43:46;10.80;66.80
55711;DHT22;41612;51.994;5.880;2023-04-28T02:46:25;10.80;65.90
55711;DHT22;41612;51.994;5.880;2023-04-28T02:48:58;10.80;66.30
55711;DHT22;41612;51.994;5.880;2023-04-28T02:51:24;10.80;66.40
55711;DHT22;41612;51.994;5.880;2023-04-28T02:54:10;10.80;66.10
55711;DHT22;41612;51.994;5.880;2023-04-28T02:56:44;10.80;65.20
55711;DHT22;41612;51.994;5.880;2023-04-28T02:59:15;10.80;66.10
55711;DHT22;41612;51.994;5.880;2023-04-28T03:01:46;10.80;65.80
55711;DHT22;41612;51.994;5.880;2023-04-28T03:04:16;10.80;66.50
55711;DHT22;41612;51.994;5.880;2023-04-28T03:06:45;10.80;66.50
55711;DHT22;41612;51.994;5.880;2023-04-28T03:09:22;10.70;66.40
55711;DHT22;41612;51.994;5.880;2023-04-28T03:11:56;10.80;66.80
55711;DHT22;41612;51.994;5.880;2023-04-28T03:14:25;10.70;66.30
55711;DHT22;41612;51.994;5.880;2023-04-28T03:16:53;10.70;65.90
55711;DHT22;41612;51.994;5.880;2023-04-28T03:19:24;10.70;66.40
55711;DHT22;41612;51.994;5.880;2023-04-28T03:21:59;10.70;65.70
55711;DHT22;41612;51.994;5.880;2023-04-28T03:24:28;10.70;66.00
55711;DHT22;41612;51.994;5.880;2023-04-28T03:26:56;10.60;66.40
55711;DHT22;41612;51.994;5.880;2023-04-28T03:29:24;10.70;66.10
55711;DHT22;41612;51.994;5.880;2023-04-28T03:31:53;10.70;64.70
55711;DHT22;41612;51.994;5.880;2023-04-28T03:34:19;10.70;65.50
55711;DHT22;41612;51.994;5.880;2023-04-28T03:36:48;10.70;64.10
55711;DHT22;41612;51.994;5.880;2023-04-28T03:39:22;10.70;64.50
55711;DHT22;41612;51.994;5.880;2023-04-28T03:41:50;10.70;66.10
55711;DHT22;41612;51.994;5.880;2023-04-28T03:44:37;10.70;65.20
55711;DHT22;41612;51.994;5.880;2023-04-28T03:47:11;10.70;66.00
55711;DHT22;41612;51.994;5.880;2023-04-28T03:49:38;10.70;64.70
55711;DHT22;41612;51.994;5.880;2023-04-28T03:52:16;10.70;64.10
55711;DHT22;41612;51.994;5.880;2023-04-28T03:54:45;10.70;65.20
55711;DHT22;41612;51.994;5.880;2023-04-28T03:57:14;10.70;64.10
55711;DHT22;41612;51.994;5.880;2023-04-28T03:59:40;10.70;59.60
55711;DHT22;41612;51.994;5.880;2023-04-28T04:02:17;10.60;61.90
55711;DHT22;41612;51.994;5.880;2023-04-28T04:04:46;10.60;62.60
55711;DHT22;41612;51.994;5.880;2023-04-28T04:07:22;10.60;63.20
55711;DHT22;41612;51.994;5.880;2023-04-28T04:09:53;10.60;62.90
55711;DHT22;41612;51.994;5.880;2023-04-28T04:12:22;10.60;62.70
55711;DHT22;41612;51.994;5.880;2023-04-28T04:14:50;10.60;61.90
55711;DHT22;41612;51.994;5.880;2023-04-28T04:17:19;10.60;63.80
55711;DHT22;41612;51.994;5.880;2023-04-28T04:19:52;10.60;64.20
55711;DHT22;41612;51.994;5.880;2023-04-28T04:22:18;10.60;63.70
55711;DHT22;41612;51.994;5.880;2023-04-28T04:24:49;10.50;62.50
55711;DHT22;41612;51.994;5.880;2023-04-28T04:27:15;10.50;60.50
55711;DHT22;41612;51.994;5.880;2023-04-28T04:29:41;10.50;61.10
55711;DHT22;41612;51.994;5.880;2023-04-28T04:32:11;10.40;61.80
55711;DHT22;41612;51.994;5.880;2023-04-28T04:34:38;10.40;63.10
55711;DHT22;41612;51.994;5.880;2023-04-28T04:37:07;10.40;63.80
55711;DHT22;41612;51.994;5.880;2023-04-28T04:39:40;10.40;63.60
55711;DHT22;41612;51.994;5.880;2023-04-28T04:42:08;10.40;63.90
55711;DHT22;41612;51.994;5.880;2023-04-28T04:44:43;10.50;63.40
55711;DHT22;41612;51.994;5.880;2023-04-28T04:47:17;10.50;63.60
55711;DHT22;41612;51.994;5.880;2023-04-28T04:49:45;10.40;64.20
55711;DHT22;41612;51.994;5.880;2023-04-28T04:52:11;10.40;61.90
55711;DHT22;41612;51.994;5.880;2023-04-28T04:54:36;10.40;61.90
55711;DHT22;41612;51.994;5.880;2023-04-28T04:57:03;10.40;61.10
55711;DHT22;41612;51.994;5.880;2023-04-28T04:59:51;10.30;61.70
55711;DHT22;41612;51.994;5.880;2023-04-28T05:02:24;10.30;61.70
55711;DHT22;41612;51.994;5.880;2023-04-28T05:05:15;10.30;61.80
55711;DHT22;41612;51.994;5.880;2023-04-28T05:08:16;10.30;62.40
55711;DHT22;41612;51.994;5.880;2023-04-28T05:13:33;10.30;62.50
55711;DHT22;41612;51.994;5.880;2023-04-28T05:16:04;10.30;62.80
55711;DHT22;41612;51.994;5.880;2023-04-28T05:18:39;10.30;63.10
55711;DHT22;41612;51.994;5.880;2023-04-28T05:21:05;10.40;62.90
55711;DHT22;41612;51.994;5.880;2023-04-28T05:23:32;10.40;63.30
55711;DHT22;41612;51.994;5.880;2023-04-28T05:26:04;10.50;63.10
55711;DHT22;41612;51.994;5.880;2023-04-28T05:28:37;10.50;63.70
55711;DHT22;41612;51.994;5.880;2023-04-28T05:31:07;10.50;64.00
55711;DHT22;41612;51.994;5.880;2023-04-28T05:33:43;10.60;63.90
55711;DHT22;41612;51.994;5.880;2023-04-28T05:36:21;10.60;64.00
55711;DHT22;41612;51.994;5.880;2023-04-28T05:39:01;10.60;64.30
55711;DHT22;41612;51.994;5.880;2023-04-28T05:41:27;10.60;64.50
55711;DHT22;41612;51.994;5.880;2023-04-28T05:43:55;10.50;64.80
55711;DHT22;41612;51.994;5.880;2023-04-28T05:46:23;10.50;65.70
55711;DHT22;41612;51.994;5.880;2023-04-28T05:48:52;10.50;66.10
55711;DHT22;41612;51.994;5.880;2023-04-28T05:51:20;10.60;66.40
55711;DHT22;41612;51.994;5.880;2023-04-28T05:53:47;10.60;66.60
55711;DHT22;41612;51.994;5.880;2023-04-28T05:56:42;10.60;67.00
55711;DHT22;41612;51.994;5.880;2023-04-28T05:59:11;10.60;67.30
55711;DHT22;41612;51.994;5.880;2023-04-28T06:02:00;10.60;67.50
55711;DHT22;41612;51.994;5.880;2023-04-28T06:04:34;10.60;67.70
55711;DHT22;41612;51.994;5.880;2023-04-28T06:07:12;10.70;67.80
55711;DHT22;41612;51.994;5.880;2023-04-28T06:10:22;10.70;68.10
55711;DHT22;41612;51.994;5.880;2023-04-28T06:13:21;10.70;68.40
55711;DHT22;41612;51.994;5.880;2023-04-28T06:15:47;10.70;68.80
55711;DHT22;41612;51.994;5.880;2023-04-28T06:18:13;10.70;70.10
55711;DHT22;41612;51.994;5.880;2023-04-28T06:20:41;10.70;70.90
55711;DHT22;41612;51.994;5.880;2023-04-28T06:23:08;10.60;72.20
55711;DHT22;41612;51.994;5.880;2023-04-28T06:25:37;10.50;72.30
55711;DHT22;41612;51.994;5.880;2023-04-28T06:28:03;10.50;72.80
55711;DHT22;41612;51.994;5.880;2023-04-28T06:30:33;10.60;73.50
55711;DHT22;41612;51.994;5.880;2023-04-28T06:33:07;10.60;74.10
55711;DHT22;41612;51.994;5.880;2023-04-28T06:35:33;10.70;74.00
55711;DHT22;41612;51.994;5.880;2023-04-28T06:38:03;10.70;74.20
55711;DHT22;41612;51.994;5.880;2023-04-28T06:40:29;10.70;74.40
55711;DHT22;41612;51.994;5.880;2023-04-28T06:42:58;10.80;74.30
55711;DHT22;41612;51.994;5.880;2023-04-28T06:45:41;10.90;74.90
55711;DHT22;41612;51.994;5.880;2023-04-28T06:48:13;10.90;74.30
55711;DHT22;41612;51.994;5.880;2023-04-28T06:50:38;11.00;73.30
55711;DHT22;41612;51.994;5.880;2023-04-28T06:53:06;11.20;72.60
55711;DHT22;41612;51.994;5.880;2023-04-28T06:55:35;11.20;74.40
55711;DHT22;41612;51.994;5.880;2023-04-28T06:58:03;11.30;72.40
55711;DHT22;41612;51.994;5.880;2023-04-28T07:00:34;11.50;73.30
55711;DHT22;41612;51.994;5.880;2023-04-28T07:03:05;11.60;71.80
55711;DHT22;41612;51.994;5.880;2023-04-28T07:05:34;11.80;74.00
55711;DHT22;41612;51.994;5.880;2023-04-28T07:08:01;11.90;73.50
55711;DHT22;41612;51.994;5.880;2023-04-28T07:10:27;12.00;73.60
55711;DHT22;41612;51.994;5.880;2023-04-28T07:12:54;12.20;74.00
55711;DHT22;41612;51.994;5.880;2023-04-28T07:15:20;12.20;74.40
55711;DHT22;41612;51.994;5.880;2023-04-28T07:17:48;12.20;74.30
55711;DHT22;41612;51.994;5.880;2023-04-28T07:20:17;12.30;75.80
55711;DHT22;41612;51.994;5.880;2023-04-28T07:22:42;12.30;76.00
55711;DHT22;41612;51.994;5.880;2023-04-28T07:25:16;12.40;76.00
55711;DHT22;41612;51.994;5.880;2023-04-28T07:27:45;12.40;75.60
55711;DHT22;41612;51.994;5.880;2023-04-28T07:30:11;12.40;76.50
55711;DHT22;41612;51.994;5.880;2023-04-28T07:32:37;12.40;76.40
55711;DHT22;41612;51.994;5.880;2023-04-28T07:35:03;12.40;76.70
55711;DHT22;41612;51.994;5.880;2023-04-28T07:37:29;12.30;76.40
55711;DHT22;41612;51.994;5.880;2023-04-28T07:39:55;12.30;76.90
55711;DHT22;41612;51.994;5.880;2023-04-28T07:42:21;12.40;77.00
55711;DHT22;41612;51.994;5.880;2023-04-28T07:44:49;12.50;76.20
55711;DHT22;41612;51.994;5.880;2023-04-28T07:47:16;12.50;76.40
55711;DHT22;41612;51.994;5.880;2023-04-28T07:49:47;12.60;77.20
55711;DHT22;41612;51.994;5.880;2023-04-28T07:52:21;12.70;74.50
55711;DHT22;41612;51.994;5.880;2023-04-28T07:54:50;12.80;76.40
55711;DHT22;41612;51.994;5.880;2023-04-28T07:57:15;12.80;76.70
55711;DHT22;41612;51.994;5.880;2023-04-28T07:59:43;12.70;76.60
55711;DHT22;41612;51.994;5.880;2023-04-28T08:02:09;12.80;77.20
55711;DHT22;41612;51.994;5.880;2023-04-28T08:04:38;12.70;76.90
55711;DHT22;41612;51.994;5.880;2023-04-28T08:07:04;12.80;76.80
55711;DHT22;41612;51.994;5.880;2023-04-28T08:09:30;12.80;76.20
55711;DHT22;41612;51.994;5.880;2023-04-28T08:11:56;12.80;76.00
55711;DHT22;41612;51.994;5.880;2023-04-28T08:14:29;12.80;74.80
55711;DHT22;41612;51.994;5.880;2023-04-28T08:16:56;12.80;76.40
55711;DHT22;41612;51.994;5.880;2023-04-28T08:19:22;13.00;77.30
55711;DHT22;41612;51.994;5.880;2023-04-28T08:21:47;13.10;76.50
55711;DHT22;41612;51.994;5.880;2023-04-28T08:24:13;13.20;75.90
55711;DHT22;41612;51.994;5.880;2023-04-28T08:26:39;13.30;75.80
55711;DHT22;41612;51.994;5.880;2023-04-28T08:29:05;13.40;75.70
55711;DHT22;41612;51.994;5.880;2023-04-28T08:31:31;13.50;75.50
55711;DHT22;41612;51.994;5.880;2023-04-28T08:33:59;13.80;76.30
55711;DHT22;41612;51.994;5.880;2023-04-28T08:36:25;13.90;75.60
55711;DHT22;41612;51.994;5.880;2023-04-28T08:38:56;14.00;75.70
55711;DHT22;41612;51.994;5.880;2023-04-28T08:41:24;14.20;74.20
55711;DHT22;41612;51.994;5.880;2023-04-28T08:43:53;14.20;73.70
55711;DHT22;41612;51.994;5.880;2023-04-28T08:46:20;14.20;72.60
55711;DHT22;41612;51.994;5.880;2023-04-28T08:48:48;14.30;74.40
55711;DHT22;41612;51.994;5.880;2023-04-28T08:51:26;14.20;74.80
55711;DHT22;41612;51.994;5.880;2023-04-28T08:53:55;14.30;75.00
55711;DHT22;41612;51.994;5.880;2023-04-28T08:56:34;14.40;75.10
55711;DHT22;41612;51.994;5.880;2023-04-28T08:59:01;14.50;74.80
55711;DHT22;41612;51.994;5.880;2023-04-28T09:01:31;14.60;73.80
55711;DHT22;41612;51.994;5.880;2023-04-28T09:03:59;14.50;73.50
55711;DHT22;41612;51.994;5.880;2023-04-28T09:06:26;14.30;72.70
55711;DHT22;41612;51.994;5.880;2023-04-28T09:08:52;14.20;74.00
55711;DHT22;41612;51.994;5.880;2023-04-28T09:11:18;14.20;74.30
55711;DHT22;41612;51.994;5.880;2023-04-28T09:13:45;14.00;74.80
55711;DHT22;41612;51.994;5.880;2023-04-28T09:16:11;14.00;74.40
55711;DHT22;41612;51.994;5.880;2023-04-28T09:18:37;13.80;75.40
55711;DHT22;41612;51.994;5.880;2023-04-28T09:21:09;13.80;76.20
55711;DHT22;41612;51.994;5.880;2023-04-28T09:23:47;13.80;76.50
55711;DHT22;41612;51.994;5.880;2023-04-28T09:26:18;13.80;77.40
55711;DHT22;41612;51.994;5.880;2023-04-28T09:28:44;13.80;77.10
55711;DHT22;41612;51.994;5.880;2023-04-28T09:31:25;13.80;76.70
55711;DHT22;41612;51.994;5.880;2023-04-28T09:34:00;13.80;77.90
55711;DHT22;41612;51.994;5.880;2023-04-28T09:36:27;13.90;77.40
55711;DHT22;41612;51.994;5.880;2023-04-28T09:38:59;13.90;77.40
55711;DHT22;41612;51.994;5.880;2023-04-28T09:41:40;13.80;77.30
55711;DHT22;41612;51.994;5.880;2023-04-28T09:44:18;13.80;78.20
55711;DHT22;41612;51.994;5.880;2023-04-28T09:46:51;13.80;78.30
55711;DHT22;41612;51.994;5.880;2023-04-28T09:49:22;13.70;78.20
55711;DHT22;41612;51.994;5.880;2023-04-28T09:51:48;13.80;78.60
55711;DHT22;41612;51.994;5.880;2023-04-28T09:54:15;13.80;78.60
55711;DHT22;41612;51.994;5.880;2023-04-28T09:56:46;13.80;77.10
55711;DHT22;41612;51.994;5.880;2023-04-28T09:59:12;13.80;78.00
55711;DHT22;41612;51.994;5.880;2023-04-28T10:01:40;13.80;78.10
55711;DHT22;41612;51.994;5.880;2023-04-28T10:04:07;13.80;77.40
55711;DHT22;41612;51.994;5.880;2023-04-28T10:06:34;13.80;78.10
55711;DHT22;41612;51.994;5.880;2023-04-28T10:09:04;13.80;78.60
55711;DHT22;41612;51.994;5.880;2023-04-28T10:11:31;13.80;77.90
55711;DHT22;41612;51.994;5.880;2023-04-28T10:13:58;13.80;78.60
55711;DHT22;41612;51.994;5.880;2023-04-28T10:16:30;13.80;79.40
55711;DHT22;41612;51.994;5.880;2023-04-28T10:18:56;13.80;79.30
55711;DHT22;41612;51.994;5.880;2023-04-28T10:21:24;13.80;79.60
55711;DHT22;41612;51.994;5.880;2023-04-28T10:26:54;13.90;79.50
55711;DHT22;41612;51.994;5.880;2023-04-28T10:29:13;13.90;79.60
55711;DHT22;41612;51.994;5.880;2023-04-28T10:34:44;13.90;79.30
55711;DHT22;41612;51.994;5.880;2023-04-28T10:37:09;14.00;80.20
55711;DHT22;41612;51.994;5.880;2023-04-28T10:39:36;14.00;80.00
55711;DHT22;41612;51.994;5.880;2023-04-28T10:42:02;14.10;80.60
55711;DHT22;41612;51.994;5.880;2023-04-28T10:47:03;14.20;80.40
55711;DHT22;41612;51.994;5.880;2023-04-28T10:55:32;14.10;81.20
55711;DHT22;41612;51.994;5.880;2023-04-28T11:00:49;14.10;82.10
55711;DHT22;41612;51.994;5.880;2023-04-28T11:03:38;14.10;82.40
55711;DHT22;41612;51.994;5.880;2023-04-28T11:06:20;14.00;82.10
55711;DHT22;41612;51.994;5.880;2023-04-28T11:09:04;14.00;82.60
55711;DHT22;41612;51.994;5.880;2023-04-28T11:14:37;14.00;83.60
55711;DHT22;41612;51.994;5.880;2023-04-28T11:19:36;14.20;82.50
55711;DHT22;41612;51.994;5.880;2023-04-28T11:22:05;14.30;81.90
55711;DHT22;41612;51.994;5.880;2023-04-28T11:24:36;14.40;82.40
55711;DHT22;41612;51.994;5.880;2023-04-28T11:27:04;14.50;82.40
55711;DHT22;41612;51.994;5.880;2023-04-28T11:29:38;14.50;81.70
55711;DHT22;41612;51.994;5.880;2023-04-28T11:32:06;14.60;80.30
55711;DHT22;41612;51.994;5.880;2023-04-28T11:34:33;14.50;80.40
55711;DHT22;41612;51.994;5.880;2023-04-28T11:37:02;14.50;81.50
55711;DHT22;41612;51.994;5.880;2023-04-28T11:39:32;14.50;81.00
55711;DHT22;41612;51.994;5.880;2023-04-28T11:42:00;14.50;82.30
55711;DHT22;41612;51.994;5.880;2023-04-28T11:44:29;14.40;80.70
55711;DHT22;41612;51.994;5.880;2023-04-28T11:46:57;14.40;81.30
55711;DHT22;41612;51.994;5.880;2023-04-28T11:49:30;14.30;81.50
55711;DHT22;41612;51.994;5.880;2023-04-28T11:52:05;14.20;82.80
55711;DHT22;41612;51.994;5.880;2023-04-28T11:57:21;14.20;82.10
55711;DHT22;41612;51.994;5.880;2023-04-28T11:59:48;14.30;83.20
55711;DHT22;41612;51.994;5.880;2023-04-28T12:02:14;14.40;82.00
55711;DHT22;41612;51.994;5.880;2023-04-28T12:04:43;14.50;81.30
55711;DHT22;41612;51.994;5.880;2023-04-28T12:09:38;14.80;82.40
55711;DHT22;41612;51.994;5.880;2023-04-28T12:12:07;14.80;82.30
55711;DHT22;41612;51.994;5.880;2023-04-28T12:14:53;14.80;80.60
55711;DHT22;41612;51.994;5.880;2023-04-28T12:17:27;14.80;79.20
55711;DHT22;41612;51.994;5.880;2023-04-28T12:19:58;14.70;81.10
55711;DHT22;41612;51.994;5.880;2023-04-28T12:22:28;14.70;82.20
55711;DHT22;41612;51.994;5.880;2023-04-28T12:25:11;14.60;82.80
55711;DHT22;41612;51.994;5.880;2023-04-28T12:27:38;14.60;82.40
55711;DHT22;41612;51.994;5.880;2023-04-28T12:32:46;14.60;82.10
55711;DHT22;41612;51.994;5.880;2023-04-28T12:35:12;14.50;81.00
55711;DHT22;41612;51.994;5.880;2023-04-28T12:37:44;14.50;80.70
55711;DHT22;41612;51.994;5.880;2023-04-28T12:40:10;14.50;82.70
55711;DHT22;41612;51.994;5.880;2023-04-28T12:42:39;14.40;83.40
55711;DHT22;41612;51.994;5.880;2023-04-28T12:45:06;14.20;80.40
55711;DHT22;41612;51.994;5.880;2023-04-28T12:47:33;14.20;81.30
55711;DHT22;41612;51.994;5.880;2023-04-28T12:49:59;14.20;82.50
55711;DHT22;41612;51.994;5.880;2023-04-28T12:52:25;14.20;80.80
55711;DHT22;41612;51.994;5.880;2023-04-28T12:54:51;14.20;81.20
55711;DHT22;41612;51.994;5.880;2023-04-28T12:57:21;14.20;80.20
55711;DHT22;41612;51.994;5.880;2023-04-28T12:59:47;14.30;81.00
55711;DHT22;41612;51.994;5.880;2023-04-28T13:02:13;14.30;81.40
55711;DHT22;41612;51.994;5.880;2023-04-28T13:04:40;14.20;83.10
55711;DHT22;41612;51.994;5.880;2023-04-28T13:07:11;14.10;82.20
55711;DHT22;41612;51.994;5.880;2023-04-28T13:09:37;14.00;82.60
55711;DHT22;41612;51.994;5.880;2023-04-28T13:12:05;14.00;83.20
55711;DHT22;41612;51.994;5.880;2023-04-28T13:14:32;14.00;83.20
55711;DHT22;41612;51.994;5.880;2023-04-28T13:16:57;14.00;83.10
55711;DHT22;41612;51.994;5.880;2023-04-28T13:19:28;14.00;84.20
55711;DHT22;41612;51.994;5.880;2023-04-28T13:21:55;14.00;83.90
55711;DHT22;41612;51.994;5.880;2023-04-28T13:24:21;14.10;83.90
55711;DHT22;41612;51.994;5.880;2023-04-28T13:26:47;14.20;83.40
55711;DHT22;41612;51.994;5.880;2023-04-28T13:29:14;14.30;82.00
55711;DHT22;41612;51.994;5.880;2023-04-28T13:31:40;14.50;81.80
55711;DHT22;41612;51.994;5.880;2023-04-28T13:34:06;14.70;80.20
55711;DHT22;41612;51.994;5.880;2023-04-28T13:36:43;14.70;78.30
55711;DHT22;41612;51.994;5.880;2023-04-28T13:39:11;14.80;81.90
55711;DHT22;41612;51.994;5.880;2023-04-28T13:41:41;14.80;80.90
55711;DHT22;41612;51.994;5.880;2023-04-28T13:44:10;14.80;81.80
55711;DHT22;41612;51.994;5.880;2023-04-28T13:46:36;14.80;79.80
55711;DHT22;41612;51.994;5.880;2023-04-28T13:49:05;14.80;81.30
55711;DHT22;41612;51.994;5.880;2023-04-28T13:51:33;14.70;81.70
55711;DHT22;41612;51.994;5.880;2023-04-28T13:53:59;14.70;82.50
55711;DHT22;41612;51.994;5.880;2023-04-28T13:56:25;14.70;81.00
55711;DHT22;41612;51.994;5.880;2023-04-28T13:58:51;14.90;82.40
55711;DHT22;41612;51.994;5.880;2023-04-28T14:01:17;15.10;81.00
55711;DHT22;41612;51.994;5.880;2023-04-28T14:03:50;15.30;80.90
55711;DHT22;41612;51.994;5.880;2023-04-28T14:06:16;15.50;78.50
55711;DHT22;41612;51.994;5.880;2023-04-28T14:08:44;15.60;78.40
55711;DHT22;41612;51.994;5.880;2023-04-28T14:11:13;15.70;77.80
55711;DHT22;41612;51.994;5.880;2023-04-28T14:13:39;15.80;79.30
55711;DHT22;41612;51.994;5.880;2023-04-28T14:16:11;15.70;79.30
55711;DHT22;41612;51.994;5.880;2023-04-28T14:18:40;15.40;79.80
55711;DHT22;41612;51.994;5.880;2023-04-28T14:21:06;15.30;79.70
55711;DHT22;41612;51.994;5.880;2023-04-28T14:23:32;15.30;78.70
55711;DHT22;41612;51.994;5.880;2023-04-28T14:26:15;15.50;77.60
55711;DHT22;41612;51.994;5.880;2023-04-28T14:28:43;15.60;76.70
55711;DHT22;41612;51.994;5.880;2023-04-28T14:31:12;15.50;75.40
55711;DHT22;41612;51.994;5.880;2023-04-28T14:33:38;15.40;77.00
55711;DHT22;41612;51.994;5.880;2023-04-28T14:36:04;15.50;77.30
55711;DHT22;41612;51.994;5.880;2023-04-28T14:38:32;15.40;75.30
55711;DHT22;41612;51.994;5.880;2023-04-28T14:40:58;15.40;78.30
55711;DHT22;41612;51.994;5.880;2023-04-28T14:43:26;15.20;76.20
55711;DHT22;41612;51.994;5.880;2023-04-28T14:45:54;15.00;79.20
55711;DHT22;41612;51.994;5.880;2023-04-28T14:48:20;14.90;79.40
55711;DHT22;41612;51.994;5.880;2023-04-28T14:50:46;14.80;79.50
55711;DHT22;41612;51.994;5.880;2023-04-28T14:53:15;14.90;80.50
55711;DHT22;41612;51.994;5.880;2023-04-28T14:55:43;14.90;80.50
55711;DHT22;41612;51.994;5.880;2023-04-28T14:58:12;14.90;80.90
55711;DHT22;41612;51.994;5.880;2023-04-28T15:00:37;14.80;80.60
55711;DHT22;41612;51.994;5.880;2023-04-28T15:03:03;14.90;76.80
55711;DHT22;41612;51.994;5.880;2023-04-28T15:05:29;15.00;77.90
55711;DHT22;41612;51.994;5.880;2023-04-28T15:07:55;15.20;78.10
55711;DHT22;41612;51.994;5.880;2023-04-28T15:10:21;15.20;78.30
55711;DHT22;41612;51.994;5.880;2023-04-28T15:12:50;15.20;77.40
55711;DHT22;41612;51.994;5.880;2023-04-28T15:15:16;15.20;78.80
55711;DHT22;41612;51.994;5.880;2023-04-28T15:17:42;15.00;78.90
55711;DHT22;41612;51.994;5.880;2023-04-28T15:20:09;14.80;80.20
55711;DHT22;41612;51.994;5.880;2023-04-28T15:22:35;14.70;80.70
55711;DHT22;41612;51.994;5.880;2023-04-28T15:25:02;14.70;81.50
55711;DHT22;41612;51.994;5.880;2023-04-28T15:27:27;14.60;79.50
55711;DHT22;41612;51.994;5.880;2023-04-28T15:29:53;14.60;80.90
55711;DHT22;41612;51.994;5.880;2023-04-28T15:32:27;14.60;79.70
55711;DHT22;41612;51.994;5.880;2023-04-28T15:34:56;14.50;79.10
55711;DHT22;41612;51.994;5.880;2023-04-28T15:37:40;14.40;79.80
55711;DHT22;41612;51.994;5.880;2023-04-28T15:40:20;14.40;81.80
55711;DHT22;41612;51.994;5.880;2023-04-28T15:42:46;14.30;81.70
55711;DHT22;41612;51.994;5.880;2023-04-28T15:45:27;14.30;78.80
55711;DHT22;41612;51.994;5.880;2023-04-28T15:47:54;14.30;80.40
55711;DHT22;41612;51.994;5.880;2023-04-28T15:50:28;14.30;80.60
55711;DHT22;41612;51.994;5.880;2023-04-28T15:52:57;14.30;79.30
55711;DHT22;41612;51.994;5.880;2023-04-28T15:55:23;14.30;80.50
55711;DHT22;41612;51.994;5.880;2023-04-28T15:57:49;14.30;80.30
55711;DHT22;41612;51.994;5.880;2023-04-28T16:00:17;14.40;80.80
55711;DHT22;41612;51.994;5.880;2023-04-28T16:02:43;14.40;80.60
55711;DHT22;41612;51.994;5.880;2023-04-28T16:05:12;14.50;81.00
55711;DHT22;41612;51.994;5.880;2023-04-28T16:07:38;14.50;81.50
55711;DHT22;41612;51.994;5.880;2023-04-28T16:10:10;14.50;81.50
55711;DHT22;41612;51.994;5.880;2023-04-28T16:12:40;14.50;81.30
55711;DHT22;41612;51.994;5.880;2023-04-28T16:15:08;14.40;82.30
55711;DHT22;41612;51.994;5.880;2023-04-28T16:17:34;14.40;82.40
55711;DHT22;41612;51.994;5.880;2023-04-28T16:20:08;14.40;78.70
55711;DHT22;41612;51.994;5.880;2023-04-28T16:22:34;14.50;79.10
55711;DHT22;41612;51.994;5.880;2023-04-28T16:25:00;14.50;76.90